ADDS METAR Data INFO
IDs: Format: Raw Decoded Include TAF

Data at: 0214 UTC 14 Dec 2017

KEMK 140155Z AUTO 29005KT 9SM CLR 20/08 A3002 RMK A01
KEMK 140135Z AUTO 27008KT 10SM CLR 21/08 A3003 RMK A01
KEMK 140115Z AUTO 27007KT 9SM CLR 19/09 A3003 RMK A01
KEMK 140055Z AUTO 29006KT 9SM CLR 20/09 A3003 RMK A01
KEMK 140035Z AUTO 31005KT 10SM CLR 21/10 A3003 RMK A01
KEMK 140015Z AUTO 29007KT 10SM CLR 20/09 A3003 RMK A01
KEMK 132355Z AUTO 30006KT 10SM FEW039 20/10 A3004 RMK A01
KEMK 132335Z AUTO 28010KT 8SM FEW040 20/10 A3005 RMK A01
KEMK 132315Z AUTO 29007KT 7SM FEW040 20/10 A3005 RMK A01
KEMK 132255Z AUTO 28007KT 8SM SCT042 20/10 A3005 RMK A01
KEMK 132235Z AUTO 27007G13KT 8SM SCT042 19/10 A3005 RMK A01
KEMK 132215Z AUTO 28006G14KT 8SM SCT041 19/09 A3005 RMK A01
KEMK 132155Z AUTO 29004G10KT 8SM SCT041 20/09 A3006 RMK A01
KEMK 132135Z AUTO 28006KT 8SM FEW042 19/09 A3006 RMK A01
KEMK 132115Z AUTO VRB04G10KT 8SM CLR 19/08 A3006 RMK A01
KEMK 132055Z AUTO 27005G11KT 8SM CLR 19/08 A3008 RMK A01
KEMK 132035Z AUTO 26006KT 9SM CLR 19/08 A3009 RMK A01
KEMK 132015Z AUTO 28005KT 8SM CLR 19/08 A3009 RMK A01
KEMK 131955Z AUTO 27004G10KT 8SM CLR 19/07 A3009 RMK A01
KEMK 131935Z AUTO 22008KT 9SM CLR 19/07 A3009 RMK A01
KEMK 131915Z AUTO 23006KT 9SM CLR 19/06 A3011 RMK A01
KEMK 131855Z AUTO 22005KT 9SM CLR 19/07 A3012 RMK A01
KEMK 131835Z AUTO 00000KT 9SM CLR 19/07 A3012 RMK A01
KEMK 131815Z AUTO VRB04KT 9SM CLR 18/07 A3014 RMK A01
KEMK 131755Z AUTO 25006KT 9SM CLR 18/07 A3015 RMK A01
KEMK 131735Z AUTO 25005KT 9SM CLR 18/07 A3017 RMK A01
KEMK 131715Z AUTO 23007KT 9SM CLR 18/06 A3018 RMK A01
KEMK 131655Z AUTO 24007KT 9SM CLR 18/07 A3020 RMK A01
KEMK 131635Z AUTO 26004KT 8SM CLR 19/06 A3021 RMK A01
KEMK 131615Z AUTO 00000KT 9SM CLR 18/06 A3021 RMK A01
KEMK 131555Z AUTO 23004KT 9SM CLR 18/06 A3021 RMK A01
KEMK 131535Z AUTO 00000KT 9SM CLR 18/06 A3021 RMK A01
KEMK 131515Z AUTO 00000KT 9SM CLR 18/06 A3020 RMK A01
KEMK 131455Z AUTO 20003KT 9SM CLR 17/06 A3020 RMK A01
KEMK 131435Z AUTO 00000KT 9SM CLR 17/05 A3019 RMK A01
KEMK 131415Z AUTO 00000KT 7SM CLR 18/05 A3019 RMK A01
KEMK 131355Z AUTO 00000KT 9SM CLR 17/05 A3018 RMK A01
KEMK 131335Z AUTO 00000KT 9SM CLR 17/06 A3018 RMK A01
KEMK 131315Z AUTO 00000KT 8SM CLR 16/06 A3018 RMK A01
KEMK 131255Z AUTO 00000KT 9SM CLR 16/05 A3018 RMK A01
KEMK 131235Z AUTO 09004KT 10SM CLR 16/05 A3018 RMK A01
KEMK 131215Z AUTO 00000KT 10SM FEW030 FEW037 16/05 A3018 RMK A01
KEMK 131155Z AUTO 05003KT 10SM FEW029 17/05 A3017 RMK A01
KEMK 131135Z AUTO 08004KT 10SM CLR 16/05 A3017 RMK A01
KEMK 131115Z AUTO 05007KT 10SM CLR 17/05 A3017 RMK A01
KEMK 131055Z AUTO 06006KT 10SM CLR 17/05 A3016 RMK A01
KEMK 131035Z AUTO 05006KT 10SM CLR 17/05 A3016 RMK A01
KEMK 131015Z AUTO 05007KT 10SM CLR 17/05 A3017 RMK A01
KEMK 130955Z AUTO 05007KT 10SM FEW032 17/05 A3017 RMK A01
KEMK 130935Z AUTO 05006G12KT 10SM CLR 17/05 A3018 RMK A01
KEMK 130915Z AUTO 05009KT 10SM CLR 17/06 A3018 RMK A01
KEMK 130855Z AUTO 02007KT 10SM CLR 17/06 A3018 RMK A01
KEMK 130835Z AUTO 05008KT 10SM CLR 17/06 A3019 RMK A01
KEMK 130815Z AUTO 05009KT 10SM FEW037 17/05 A3020 RMK A01
KEMK 130755Z AUTO 03011KT 10SM CLR 17/06 A3020 RMK A01
KEMK 130735Z AUTO 04011KT 10SM CLR 17/06 A3020 RMK A01
KEMK 130715Z AUTO 03008KT 10SM CLR 17/05 A3021 RMK A01
KEMK 130655Z AUTO 02010G15KT 10SM CLR 17/05 A3021 RMK A01
KEMK 130635Z AUTO 01011G17KT 10SM FEW038 17/05 A3021 RMK A01
KEMK 130615Z AUTO 03013KT 10SM FEW032 FEW037 17/06 A3021 RMK A01
KEMK 130555Z AUTO 03011G18KT 10SM SCT033 17/05 A3022 RMK A01
KEMK 130535Z AUTO 03012KT 10SM FEW035 17/05 A3022 RMK A01
KEMK 130515Z AUTO 03010KT 9SM SCT033 17/05 A3022 RMK A01
KEMK 130455Z AUTO 01010G16KT 10SM BKN033 BKN038 18/05 A3022 RMK A01
KEMK 130435Z AUTO 03013G18KT 10SM BKN033 17/05 A3022 RMK A01
KEMK 130415Z AUTO 04013KT 10SM BKN033 17/05 A3022 RMK A01
KEMK 130355Z AUTO 04013KT 10SM BKN030 BKN035 17/05 A3023 RMK A01
KEMK 130335Z AUTO 02013KT 8SM OVC030 17/05 A3023 RMK A01
KEMK 130315Z AUTO 03012G17KT 8SM BKN030 BKN060 17/05 A3023 RMK A01
KEMK 130255Z AUTO 02011KT 9SM FEW031 BKN060 17/04 A3023 RMK A01
KEMK 130235Z AUTO 04013KT 7SM OVC060 17/06 A3023 RMK A01
KEMK 130215Z AUTO 02011G16KT 6SM HZ OVC055 17/05 A3023 RMK A01
KEMK 130155Z AUTO 02011G16KT 7SM BKN055 17/06 A3023 RMK A01
KEMK 130135Z AUTO 01012KT 10SM FEW055 17/06 A3023 RMK A01
KEMK 130115Z AUTO 03014KT 10SM CLR 17/07 A3022 RMK A01
KEMK 130055Z AUTO 03013KT 10SM FEW031 FEW043 17/06 A3023 RMK A01
KEMK 130035Z AUTO 02012G19KT 10SM CLR 17/06 A3022 RMK A01
KEMK 130015Z AUTO 03011KT 10SM CLR 17/06 A3022 RMK A01
KEMK 122355Z AUTO 04017KT 10SM FEW029 17/08 A3022 RMK A01
KEMK 122335Z AUTO 03015KT 8SM CLR 17/07 A3021 RMK A01
KEMK 122315Z AUTO 03014KT 8SM CLR 17/07 A3021 RMK A01
KEMK 122255Z AUTO 02012G18KT 8SM CLR 18/07 A3021 RMK A01
KEMK 122235Z AUTO 03013G18KT 8SM CLR 18/07 A3020 RMK A01
KEMK 122215Z AUTO 01012G20KT 8SM CLR 18/08 A3020 RMK A01
KEMK 122155Z AUTO 04017KT 7SM CLR 18/08 A3020 RMK A01
KEMK 122135Z AUTO 03014G19KT 8SM CLR 18/08 A3020 RMK A01
KEMK 122115Z AUTO 03014KT 8SM CLR 19/07 A3020 RMK A01
KEMK 122055Z AUTO 03015KT 8SM CLR 19/08 A3020 RMK A01
KEMK 122035Z AUTO 03013G19KT 8SM CLR 19/08 A3020 RMK A01
KEMK 122015Z AUTO 04014KT 8SM CLR 19/08 A3020 RMK A01
KEMK 121955Z AUTO 03016KT 7SM CLR 19/08 A3021 RMK A01
KEMK 121935Z AUTO 04014KT 8SM CLR 19/07 A3021 RMK A01
KEMK 121915Z AUTO 04015KT 8SM CLR 19/08 A3022 RMK A01
KEMK 121855Z AUTO 04017KT 8SM CLR 19/06 A3022 RMK A01
KEMK 121835Z AUTO 04017KT 8SM CLR 19/07 A3023 RMK A01
KEMK 121815Z AUTO 04018KT 8SM CLR 20/07 A3024 RMK A01
KEMK 121755Z AUTO 04020KT 8SM CLR 20/08 A3025 RMK A01
KEMK 121735Z AUTO 04020KT 8SM CLR 20/08 A3025 RMK A01
KEMK 121715Z AUTO 04019KT 8SM CLR 20/08 A3026 RMK A01
KEMK 121655Z AUTO 05021KT 8SM CLR 20/06 A3025 RMK A01
KEMK 121635Z AUTO 05021KT 8SM CLR 20/05 A3026 RMK A01
KEMK 121615Z AUTO 05022KT 8SM CLR 20/06 A3026 RMK A01
KEMK 121555Z AUTO 04023KT 8SM CLR 20/07 A3025 RMK A01
KEMK 121535Z AUTO 04022G27KT 8SM CLR 20/08 A3025 RMK A01
KEMK 121515Z AUTO 04020KT 8SM CLR 20/09 A3025 RMK A01
KEMK 121455Z AUTO 03020KT 8SM CLR 20/09 A3024 RMK A01
KEMK 121435Z AUTO 03018KT 8SM CLR 20/09 A3024 RMK A01
KEMK 121415Z AUTO 01014G23KT 8SM CLR 20/10 A3024 RMK A01